Flight Track Log - Related Links

Times and Time Zones

All times are in EDT time to prevent confusion due to time zone crossing. See the TYR847 flight status page for this flight to view local times or setup timezone preferences in your user account.

Time Position Orientation Groundspeed Altitude Reporting Facility
EDT Latitude Longitude Course Direction KTS MPH feet Rate Location/Type
Sun 07:11:00 AM 47.6742 16.8002 160° South  Level Estimated
Sun 07:12:00 AM 47.5651 16.8572 161° South  Level Estimated
Sun 07:13:00 AM 47.4560 16.9140 161° South  Level Estimated
Sun 07:14:00 AM 47.3469 16.9706 161° South  Level Estimated
Sun 07:15:00 AM 47.2377 17.0269 161° South  Level Estimated
Sun 07:16:00 AM 47.1285 17.0830 161° South  Level Estimated
Sun 07:17:00 AM 47.0193 17.1388 161° South  Level Estimated
Sun 07:18:00 AM 46.9100 17.1945 161° South  Level Estimated
Sun 07:19:00 AM 46.8007 17.2499 161° South  Level Estimated
Sun 07:20:00 AM 46.6914 17.3051 161° South  Level Estimated
Sun 07:21:00 AM 46.5821 17.3600 161° South  Level Estimated
Sun 07:22:00 AM 46.4727 17.4147 161° South  Level Estimated
Sun 07:23:00 AM 46.3633 17.4692 161° South  Level Estimated
Sun 07:24:00 AM 46.2539 17.5236 161° South  Level Estimated
Sun 07:25:00 AM 46.1445 17.5776 161° South  Level Estimated
Sun 07:26:00 AM 46.0350 17.6315 161° South  Level Estimated
Sun 07:27:00 AM 45.9255 17.6851 161° South  Level Estimated
Sun 07:28:00 AM 45.8160 17.7386 161° South  Level Estimated
Sun 07:29:00 AM 45.7065 17.7918 161° South  Level Estimated
Sun 07:30:00 AM 45.5969 17.8448 161° South  Level Estimated
Sun 07:31:00 AM 45.4873 17.8976 161° South  Level Estimated
Sun 07:32:00 AM 45.3777 17.9503 161° South  Level Estimated
Sun 07:33:00 AM 45.2681 18.0027 161° South  Level Estimated
Sun 07:34:00 AM 45.1584 18.0549 161° South  Level Estimated
Sun 07:35:00 AM 45.0488 18.1069 161° South  Level Estimated
Sun 07:36:00 AM 44.9390 18.1587 162° South  Level Estimated
Sun 07:37:00 AM 44.8293 18.2103 162° South  Level Estimated
Sun 07:38:00 AM 44.7196 18.2617 162° South  Level Estimated
Sun 07:39:00 AM 44.6098 18.3129 162° South  Level Estimated
Sun 07:40:00 AM 44.5000 18.3639 162° South  Level Estimated
Sun 07:41:00 AM 44.3902 18.4148 162° South  Level Estimated
Sun 07:42:00 AM 44.2803 18.4654 162° South  Level Estimated
Sun 07:43:00 AM 44.1705 18.5159 162° South  Level Estimated
Sun 07:44:00 AM 44.0606 18.5661 162° South  Level Estimated
Sun 07:45:00 AM 43.9507 18.6162 162° South  Level Estimated
Sun 07:46:00 AM 43.8407 18.6661 162° South  Level Estimated
Sun 07:47:00 AM 43.7308 18.7158 162° South  Level Estimated
Sun 07:48:00 AM 43.6208 18.7653 162° South  Level Estimated
Sun 07:49:00 AM 43.5108 18.8147 162° South  Level Estimated
Sun 07:50:00 AM 43.4008 18.8639 162° South  Level Estimated
Sun 07:51:00 AM 43.2907 18.9128 162° South  Level Estimated
Sun 07:52:00 AM 43.1807 18.9617 162° South  Level Estimated
Sun 07:53:00 AM 43.0706 19.0103 162° South  Level Estimated
Sun 07:54:00 AM 42.9605 19.0588 162° South  Level Estimated
Sun 07:55:00 AM 42.8504 19.1070 162° South  Level Estimated
Sun 07:56:00 AM 42.7402 19.1552 162° South  Level Estimated
Sun 07:57:00 AM 42.6301 19.2031 162° South  Level Estimated
Sun 07:58:00 AM 42.5199 19.2509 162° South  Level Estimated
Sun 07:59:00 AM 42.4097 19.2985 162° South  Level Estimated
Sun 08:00:00 AM 42.2995 19.3459 162° South  Level Estimated
Sun 08:01:00 AM 42.1893 19.3932 162° South  Level Estimated
Sun 08:02:00 AM 42.0790 19.4403 162° South  Level Estimated
Sun 08:03:00 AM 41.9687 19.4873 162° South  Level Estimated
Sun 08:04:00 AM 41.8584 19.5341 162° South  Level Estimated
Sun 08:05:00 AM 41.7481 19.5807 162° South  Level Estimated
Sun 08:06:00 AM 41.6378 19.6271 163° South  Level Estimated
Sun 08:07:00 AM 41.5274 19.6735 163° South  Level Estimated
Sun 08:08:00 AM 41.4170 19.7196 163° South  Level Estimated
Sun 08:09:00 AM 41.4147 19.7206 163° South  Level Estimated
Sun 08:10:00 AM 41.4147 19.7206 21° North  Level Estimated
Sun 08:11:00 AM 41.4147 19.7206 21° North  Level Estimated
Sun 08:12:00 AM 41.4147 19.7206 21° North  Level Estimated
Sun 08:13:00 AM 41.4147 19.7206 21° North  Level Estimated
Sun 08:14:00 AM 41.4147 19.7206 21° North  Level Estimated
Sun 08:15:00 AM 41.4147 19.7206 21° North  Level Estimated
Sun 08:16:00 AM 41.4147 19.7206 21° North  Level Estimated
Sun 08:17:00 AM 41.4147 19.7206 21° North  Level Estimated
Sun 08:18:00 AM 41.4147 19.7206 21° North  Level Estimated
Sun 08:19:00 AM 41.4147 19.7206 21° North  Level Estimated
Sun 08:20:00 AM 41.4147 19.7206 21° North  Level Estimated
Sun 08:21:00 AM 41.4147 19.7206 21° North  Level Estimated
Sun 08:22:00 AM 41.4147 19.7206 21° North  Level Estimated
Sun 08:23:00 AM 41.4147 19.7206 21° North  Level Estimated
Sun 08:24:00 AM 41.4147 19.7206 21° North  Level Estimated

Login

Don't have an account? Register now (free) for customized features, flight alerts, and more!